createdAt,value
2022-09-24T00:01:40.615Z,82.78
2022-09-24T00:04:13.166Z,83.61
2022-09-24T00:06:47.998Z,83.71
2022-09-24T00:09:22.246Z,83.71
2022-09-24T00:11:52.785Z,83.69
2022-09-24T00:14:20.504Z,83.28
2022-09-24T00:16:47.818Z,83.71
2022-09-24T00:19:15.311Z,83.08
2022-09-24T00:21:43.653Z,82.88
2022-09-24T00:24:34.314Z,82.57
2022-09-24T00:27:04.104Z,82.11
2022-09-24T00:29:34.361Z,82.21
2022-09-24T00:32:03.278Z,81.90
2022-09-24T00:34:30.727Z,82.29
2022-09-24T00:36:57.922Z,82.41
2022-09-24T00:39:25.306Z,82.69
2022-09-24T00:41:52.726Z,82.75
2022-09-24T00:44:55.053Z,82.95
2022-09-24T00:47:46.016Z,82.81
2022-09-24T00:50:25.398Z,82.74
2022-09-24T00:53:07.501Z,82.77
2022-09-24T00:55:37.685Z,83.34
2022-09-24T00:58:09.473Z,83.75
2022-09-24T01:00:44.764Z,84.00
2022-09-24T01:03:21.508Z,84.04
2022-09-24T01:05:51.086Z,84.52
2022-09-24T01:08:21.171Z,84.23
2022-09-24T01:11:16.334Z,84.03
2022-09-24T01:14:27.079Z,84.51
2022-09-24T01:17:07.068Z,84.90
2022-09-24T01:19:47.237Z,85.19
2022-09-24T01:22:41.202Z,85.52
2022-09-24T01:25:37.964Z,85.35
2022-09-24T01:28:38.387Z,86.09
2022-09-24T01:31:41.196Z,85.86
2022-09-24T01:34:12.479Z,86.37
2022-09-24T01:36:43.049Z,86.51
2022-09-24T01:39:14.567Z,86.38
2022-09-24T01:41:44.831Z,86.46
2022-09-24T01:44:13.176Z,88.19
2022-09-24T01:46:42.319Z,87.65
2022-09-24T01:49:10.327Z,87.37
2022-09-24T01:51:58.889Z,87.99
2022-09-24T01:54:37.142Z,87.75
2022-09-24T01:57:30.122Z,87.98
2022-09-24T02:00:10.031Z,88.19
2022-09-24T02:03:02.537Z,88.54
2022-09-24T02:05:41.801Z,88.67
2022-09-24T02:08:11.957Z,88.06
2022-09-24T02:10:57.869Z,87.63
2022-09-24T02:13:34.159Z,88.04
2022-09-24T02:16:05.979Z,87.79
2022-09-24T02:18:41.773Z,88.75
2022-09-24T02:21:15.685Z,87.97
2022-09-24T02:24:03.334Z,87.56
2022-09-24T02:26:30.739Z,87.24
2022-09-24T02:28:59.292Z,87.68
2022-09-24T02:31:32.417Z,87.33
2022-09-24T02:34:20.701Z,87.15
2022-09-24T02:36:54.695Z,87.75
2022-09-24T02:39:22.299Z,87.43
2022-09-24T02:41:52.427Z,87.33
2022-09-24T02:44:20.541Z,86.95
2022-09-24T02:46:48.357Z,86.68
2022-09-24T02:49:15.923Z,86.56
2022-09-24T02:51:44.958Z,86.50
2022-09-24T02:54:12.901Z,86.18
2022-09-24T02:56:41.157Z,85.97
2022-09-24T02:59:08.827Z,86.64
2022-09-24T03:01:36.853Z,86.93
2022-09-24T03:04:04.792Z,87.14
2022-09-24T03:06:32.888Z,87.86
2022-09-24T03:09:02.363Z,87.95
2022-09-24T03:11:31.592Z,88.06
2022-09-24T03:13:59.489Z,87.76
2022-09-24T03:16:27.027Z,87.70
2022-09-24T03:18:54.285Z,87.75
2022-09-24T03:21:22.713Z,87.70
2022-09-24T03:23:50.475Z,88.40
2022-09-24T03:26:18.443Z,87.98
2022-09-24T03:28:46.153Z,88.31
2022-09-24T03:31:14.151Z,88.27
2022-09-24T03:33:49.110Z,88.17
2022-09-24T03:36:26.891Z,88.46
2022-09-24T03:38:56.914Z,88.13
2022-09-24T03:41:30.036Z,88.07
2022-09-24T03:43:57.269Z,88.07
2022-09-24T03:46:30.288Z,88.18
2022-09-24T03:48:59.476Z,87.88
2022-09-24T03:51:26.699Z,87.86
2022-09-24T03:53:53.933Z,87.50
2022-09-24T03:56:21.316Z,87.33
2022-09-24T03:58:48.544Z,87.01
2022-09-24T04:01:21.385Z,86.78
2022-09-24T04:03:50.655Z,86.79
2022-09-24T04:06:23.346Z,87.29
2022-09-24T04:08:53.346Z,87.27
2022-09-24T04:11:20.576Z,88.12
2022-09-24T04:13:47.821Z,87.86
2022-09-24T04:16:15.289Z,87.72
2022-09-24T04:18:43.063Z,87.91
2022-09-24T04:21:10.675Z,87.75
2022-09-24T04:23:38.122Z,87.92
2022-09-24T04:26:05.357Z,87.89
2022-09-24T04:28:33.086Z,87.47
2022-09-24T04:31:00.489Z,87.69
2022-09-24T04:33:27.877Z,87.54
2022-09-24T04:35:55.008Z,87.55
2022-09-24T04:38:22.403Z,87.69
2022-09-24T04:40:49.755Z,87.49
2022-09-24T04:43:19.287Z,87.13
2022-09-24T04:45:47.116Z,87.14
2022-09-24T04:48:14.519Z,87.19
2022-09-24T04:50:45.865Z,86.75
2022-09-24T04:53:14.854Z,86.77
2022-09-24T04:55:42.211Z,86.81
2022-09-24T04:58:10.468Z,86.50
2022-09-24T05:00:37.974Z,86.44
2022-09-24T05:03:05.694Z,86.01
2022-09-24T05:05:34.565Z,85.67
2022-09-24T05:08:03.165Z,85.35
2022-09-24T05:10:33.208Z,85.20
2022-09-24T05:13:02.324Z,85.14
2022-09-24T05:15:30.344Z,84.75
2022-09-24T05:17:58.204Z,84.55
2022-09-24T05:20:25.807Z,84.39
2022-09-24T05:22:53.263Z,84.34
2022-09-24T05:25:22.668Z,84.20
2022-09-24T05:27:55.930Z,83.88
2022-09-24T05:30:25.997Z,83.86
2022-09-24T05:32:53.366Z,83.74
2022-09-24T05:35:23.970Z,83.28
2022-09-24T05:37:53.840Z,83.05
2022-09-24T05:40:40.123Z,83.18
2022-09-24T05:43:07.695Z,82.84
2022-09-24T05:45:34.930Z,82.82
2022-09-24T05:48:02.507Z,82.76
2022-09-24T05:50:30.210Z,82.07
2022-09-24T05:52:57.431Z,81.90
2022-09-24T05:55:28.745Z,81.55
2022-09-24T05:58:07.593Z,81.52
2022-09-24T06:00:36.294Z,81.35
2022-09-24T06:03:17.163Z,81.10
2022-09-24T06:05:50.382Z,80.83
2022-09-24T06:08:20.716Z,80.44
2022-09-24T06:10:48.950Z,80.03
2022-09-24T06:13:21.004Z,79.32
2022-09-24T06:15:48.488Z,79.12
2022-09-24T06:18:16.007Z,78.96
2022-09-24T06:20:44.508Z,78.60
2022-09-24T06:23:11.857Z,78.01
2022-09-24T06:25:39.009Z,77.32
2022-09-24T06:28:06.254Z,76.51
2022-09-24T06:30:40.154Z,76.30
2022-09-24T06:33:11.738Z,75.72
2022-09-24T06:35:42.907Z,75.04
2022-09-24T06:38:16.806Z,74.32
2022-09-24T06:40:47.180Z,73.64
2022-09-24T06:43:15.588Z,73.27
2022-09-24T06:45:43.189Z,71.71
2022-09-24T06:48:14.979Z,71.45
2022-09-24T06:50:45.545Z,71.14
2022-09-24T06:53:13.262Z,70.54
2022-09-24T06:55:42.015Z,69.91
2022-09-24T06:58:13.349Z,69.44
2022-09-24T07:00:41.884Z,68.61
2022-09-24T07:03:18.295Z,66.91
2022-09-24T07:05:45.866Z,65.51
2022-09-24T07:08:13.116Z,64.53
2022-09-24T07:10:52.679Z,63.32
2022-09-24T07:13:21.552Z,62.59
2022-09-24T07:15:51.400Z,61.29
2022-09-24T07:18:23.658Z,59.32
2022-09-24T07:20:56.563Z,58.84
2022-09-24T07:23:24.482Z,58.29
2022-09-24T07:25:57.748Z,57.68
2022-09-24T07:28:25.688Z,57.04
2022-09-24T07:30:59.322Z,56.37
2022-09-24T07:33:26.858Z,55.61
2022-09-24T07:35:54.301Z,54.25
2022-09-24T07:38:22.460Z,53.41
2022-09-24T07:40:50.006Z,53.39
2022-09-24T07:43:21.425Z,52.22
2022-09-24T07:45:49.177Z,52.11
2022-09-24T07:48:16.612Z,51.38
2022-09-24T07:50:44.089Z,51.49
2022-09-24T07:53:12.788Z,51.57
2022-09-24T07:55:40.912Z,51.21
2022-09-24T07:58:13.960Z,50.62
2022-09-24T08:00:41.831Z,48.35
2022-09-24T08:03:09.109Z,47.93
2022-09-24T08:05:43.035Z,48.20
2022-09-24T08:08:10.171Z,47.99
2022-09-24T08:10:38.658Z,48.25
2022-09-24T08:13:05.898Z,48.82
2022-09-24T08:15:33.310Z,48.53
2022-09-24T08:18:04.932Z,48.32
2022-09-24T08:20:33.725Z,48.35
2022-09-24T08:23:02.891Z,48.33
2022-09-24T08:25:31.319Z,48.51
2022-09-24T08:28:12.314Z,48.26
2022-09-24T08:30:40.531Z,48.41
2022-09-24T08:33:08.497Z,48.77
2022-09-24T08:35:36.769Z,48.69
2022-09-24T08:38:04.381Z,48.18
2022-09-24T08:41:21.453Z,47.23
2022-09-24T08:44:44.142Z,47.20
2022-09-24T08:47:43.142Z,47.81
2022-09-24T08:50:23.500Z,48.68
2022-09-24T08:53:15.331Z,49.05
2022-09-24T08:55:54.374Z,49.12
2022-09-24T08:58:52.415Z,48.92
2022-09-24T09:01:48.954Z,48.62
2022-09-24T09:04:44.025Z,47.71
2022-09-24T09:07:26.398Z,46.66
2022-09-24T09:10:08.215Z,46.29
2022-09-24T09:12:42.377Z,47.17
2022-09-24T09:15:24.571Z,47.30
2022-09-24T09:18:01.629Z,47.01
2022-09-24T09:20:44.755Z,46.17
2022-09-24T09:23:47.105Z,46.59
2022-09-24T09:26:15.224Z,46.05
2022-09-24T09:28:42.775Z,44.75
2022-09-24T09:31:59.994Z,42.96
2022-09-24T09:34:49.015Z,41.99
2022-09-24T09:37:29.266Z,40.54
2022-09-24T09:40:31.625Z,39.78
2022-09-24T09:43:11.662Z,38.94
2022-09-24T09:46:18.624Z,38.65
2022-09-24T09:48:56.453Z,37.77
2022-09-24T09:51:26.588Z,37.71
2022-09-24T09:54:02.674Z,38.09
2022-09-24T09:56:38.381Z,37.56
2022-09-24T09:59:15.244Z,37.53
2022-09-24T10:01:46.950Z,37.70
2022-09-24T10:04:39.654Z,37.91
2022-09-24T10:07:14.258Z,39.08
2022-09-24T10:09:43.999Z,39.66
2022-09-24T10:12:24.437Z,40.55
2022-09-24T10:15:21.028Z,40.88
2022-09-24T10:17:53.316Z,39.50
2022-09-24T10:20:32.808Z,39.24
2022-09-24T10:23:07.533Z,39.76
2022-09-24T10:25:37.728Z,40.66
2022-09-24T10:28:36.012Z,41.13
2022-09-24T10:31:19.320Z,40.18
2022-09-24T10:33:52.330Z,39.40
2022-09-24T10:36:30.156Z,39.23
2022-09-24T10:39:07.692Z,38.11
2022-09-24T10:41:36.009Z,36.08
2022-09-24T10:44:11.986Z,33.44
2022-09-24T10:46:44.959Z,30.61
2022-09-24T10:49:58.103Z,27.63
2022-09-24T10:52:40.259Z,23.84
2022-09-24T10:55:33.908Z,22.83
2022-09-24T10:58:44.621Z,22.49
2022-09-24T11:01:32.521Z,21.63
2022-09-24T11:04:38.634Z,22.78
2022-09-24T11:07:48.337Z,24.03
2022-09-24T11:11:16.584Z,23.49
2022-09-24T11:14:17.180Z,24.59
2022-09-24T11:17:00.247Z,23.69
2022-09-24T11:20:04.834Z,23.12
2022-09-24T11:22:55.319Z,22.63
2022-09-24T11:25:47.559Z,20.81
2022-09-24T11:28:56.288Z,18.75
2022-09-24T11:31:47.740Z,17.53
2022-09-24T11:34:51.064Z,18.33
2022-09-24T11:37:44.290Z,16.81
2022-09-24T11:40:17.140Z,16.72
2022-09-24T11:43:18.547Z,17.29
2022-09-24T11:46:03.921Z,16.87
2022-09-24T11:48:43.178Z,17.07
2022-09-24T11:51:16.822Z,15.54
2022-09-24T11:53:59.004Z,17.22
2022-09-24T11:56:40.488Z,18.90
2022-09-24T11:59:29.255Z,20.13
2022-09-24T12:02:19.393Z,21.75
2022-09-24T12:05:09.419Z,23.44
2022-09-24T12:07:45.386Z,24.60
2022-09-24T12:10:38.683Z,25.58
2022-09-24T12:13:42.463Z,26.07
2022-09-24T12:16:20.303Z,26.69
2022-09-24T12:19:17.860Z,26.43
2022-09-24T12:21:50.637Z,27.28
2022-09-24T12:24:23.569Z,24.91
2022-09-24T12:26:53.868Z,24.04
2022-09-24T12:30:03.236Z,22.33
2022-09-24T12:33:01.358Z,21.49
2022-09-24T12:35:28.488Z,22.44
2022-09-24T12:38:13.109Z,23.69
2022-09-24T12:40:40.257Z,22.95
2022-09-24T12:43:35.480Z,21.57
2022-09-24T12:46:06.928Z,23.29
2022-09-24T12:48:38.919Z,23.85
2022-09-24T12:51:10.444Z,19.37
2022-09-24T12:53:42.441Z,16.84
2022-09-24T12:56:11.937Z,15.25
2022-09-24T12:58:45.277Z,13.36
2022-09-24T13:01:29.016Z,12.85
2022-09-24T13:04:14.353Z,12.46
2022-09-24T13:06:48.278Z,11.78
2022-09-24T13:09:41.304Z,11.34
2022-09-24T13:12:18.127Z,10.42
2022-09-24T13:15:02.786Z,11.19
2022-09-24T13:17:36.074Z,10.73
2022-09-24T13:20:17.224Z,10.85
2022-09-24T13:23:20.530Z,10.34
2022-09-24T13:26:05.117Z,9.06
2022-09-24T13:28:51.473Z,9.89
2022-09-24T13:31:22.159Z,11.19
2022-09-24T13:34:00.803Z,10.47
2022-09-24T13:36:59.156Z,10.46
2022-09-24T13:39:50.546Z,10.23
2022-09-24T13:42:35.873Z,10.58
2022-09-24T13:45:11.563Z,10.37
2022-09-24T13:47:51.224Z,12.05
2022-09-24T13:50:50.014Z,14.22
2022-09-24T13:53:37.019Z,14.19
2022-09-24T13:56:14.341Z,14.68
2022-09-24T13:58:43.863Z,15.10
2022-09-24T14:01:26.109Z,14.22
2022-09-24T14:04:01.575Z,14.89
2022-09-24T14:06:45.700Z,15.96
2022-09-24T14:09:34.959Z,15.95
2022-09-24T14:12:15.501Z,16.16
2022-09-24T14:14:52.013Z,15.83
2022-09-24T14:17:19.911Z,18.30
2022-09-24T14:19:54.022Z,17.51
2022-09-24T14:22:36.636Z,17.14
2022-09-24T14:25:10.678Z,18.47
2022-09-24T14:27:45.518Z,18.86
2022-09-24T14:30:23.415Z,19.81
2022-09-24T14:33:16.913Z,20.96
2022-09-24T14:35:52.161Z,21.01
2022-09-24T14:38:29.720Z,22.14
2022-09-24T14:41:19.939Z,23.24
2022-09-24T14:43:55.235Z,22.85
2022-09-24T14:46:32.658Z,23.02
2022-09-24T14:49:17.603Z,23.08
2022-09-24T14:52:04.249Z,24.13
2022-09-24T14:54:40.306Z,25.00
2022-09-24T14:57:19.951Z,26.08
2022-09-24T14:59:47.799Z,27.43
2022-09-24T15:02:37.270Z,28.61
2022-09-24T15:05:08.753Z,29.70
2022-09-24T15:07:36.521Z,31.50
2022-09-24T15:10:06.567Z,31.47
2022-09-24T15:12:40.994Z,32.68
2022-09-24T15:15:17.418Z,33.76
2022-09-24T15:17:47.471Z,35.53
2022-09-24T15:20:15.331Z,36.35
2022-09-24T15:22:43.063Z,36.57
2022-09-24T15:25:14.559Z,36.54
2022-09-24T15:27:43.009Z,37.82
2022-09-24T15:30:20.749Z,38.84
2022-09-24T15:32:52.527Z,38.73
2022-09-24T15:35:19.791Z,38.84
2022-09-24T15:37:49.538Z,38.99
2022-09-24T15:40:23.229Z,40.32
2022-09-24T15:42:51.844Z,40.08
2022-09-24T15:45:22.984Z,40.99
2022-09-24T15:47:52.099Z,42.11
2022-09-24T15:50:22.766Z,42.41
2022-09-24T15:52:59.860Z,43.74
2022-09-24T15:55:29.040Z,44.20
2022-09-24T15:57:56.506Z,45.28
2022-09-24T16:00:25.720Z,45.99
2022-09-24T16:02:58.095Z,46.53
2022-09-24T16:05:26.202Z,47.38
2022-09-24T16:07:53.498Z,48.17
2022-09-24T16:10:21.009Z,48.44
2022-09-24T16:12:48.471Z,48.50
2022-09-24T16:15:16.798Z,48.48
2022-09-24T16:17:44.545Z,48.56
2022-09-24T16:20:11.969Z,49.27
2022-09-24T16:22:39.364Z,49.33
2022-09-24T16:25:07.258Z,49.98
2022-09-24T16:27:35.418Z,51.17
2022-09-24T16:30:06.281Z,52.12
2022-09-24T16:32:33.978Z,51.93
2022-09-24T16:35:01.664Z,53.64
2022-09-24T16:37:29.345Z,53.80
2022-09-24T16:39:56.642Z,54.63
2022-09-24T16:42:26.442Z,55.69
2022-09-24T16:44:53.702Z,55.54
2022-09-24T16:47:21.211Z,55.80
2022-09-24T16:49:48.642Z,56.43
2022-09-24T16:52:15.897Z,56.21
2022-09-24T16:54:43.603Z,56.70
2022-09-24T16:57:11.089Z,56.55
2022-09-24T16:59:38.335Z,57.62
2022-09-24T17:02:08.550Z,57.83
2022-09-24T17:04:36.003Z,58.77
2022-09-24T17:07:03.228Z,58.53
2022-09-24T17:09:48.847Z,59.11
2022-09-24T17:12:16.302Z,59.97
2022-09-24T17:14:43.707Z,60.22
2022-09-24T17:17:10.894Z,60.14
2022-09-24T17:19:38.320Z,60.00
2022-09-24T17:22:06.012Z,60.24
2022-09-24T17:24:36.032Z,59.52
2022-09-24T17:27:03.530Z,59.15
2022-09-24T17:29:31.876Z,59.50
2022-09-24T17:31:59.484Z,61.06
2022-09-24T17:34:27.657Z,60.65
2022-09-24T17:36:54.980Z,62.04
2022-09-24T17:39:22.953Z,61.98
2022-09-24T17:41:50.376Z,62.38
2022-09-24T17:44:18.062Z,63.04
2022-09-24T17:46:45.389Z,64.08
2022-09-24T17:49:12.978Z,63.61
2022-09-24T17:51:40.182Z,63.21
2022-09-24T17:54:14.653Z,63.41
2022-09-24T17:56:42.652Z,63.03
2022-09-24T17:59:13.618Z,62.92
2022-09-24T18:01:44.555Z,62.31
2022-09-24T18:04:22.635Z,62.90
2022-09-24T18:06:50.489Z,62.55
2022-09-24T18:09:19.162Z,63.39
2022-09-24T18:11:52.714Z,64.07
2022-09-24T18:14:23.057Z,64.57
2022-09-24T18:16:52.171Z,64.64
2022-09-24T18:19:19.714Z,64.57
2022-09-24T18:21:49.323Z,65.03
2022-09-24T18:24:17.474Z,65.45
2022-09-24T18:26:48.376Z,64.79
2022-09-24T18:29:19.435Z,65.22
2022-09-24T18:31:46.859Z,65.65
2022-09-24T18:34:16.261Z,65.36
2022-09-24T18:36:45.198Z,65.55
2022-09-24T18:39:21.770Z,65.91
2022-09-24T18:41:51.628Z,66.84
2022-09-24T18:44:19.836Z,66.62
2022-09-24T18:46:47.162Z,67.24
2022-09-24T18:49:15.001Z,67.72
2022-09-24T18:51:42.313Z,67.21
2022-09-24T18:54:14.542Z,68.08
2022-09-24T18:56:43.718Z,68.55
2022-09-24T18:59:14.874Z,67.52
2022-09-24T19:01:43.995Z,68.05
2022-09-24T19:04:13.463Z,68.94
2022-09-24T19:06:44.238Z,69.16
2022-09-24T19:09:17.413Z,69.06
2022-09-24T19:11:45.637Z,69.57
2022-09-24T19:14:18.554Z,69.75
2022-09-24T19:16:47.393Z,69.98
2022-09-24T19:19:16.355Z,70.52
2022-09-24T19:21:43.936Z,70.37
2022-09-24T19:24:11.759Z,70.69
2022-09-24T19:26:39.237Z,71.56
2022-09-24T19:29:06.697Z,71.31
2022-09-24T19:31:38.727Z,71.43
2022-09-24T19:34:09.085Z,72.23
2022-09-24T19:36:43.766Z,72.41
2022-09-24T19:39:15.943Z,72.89
2022-09-24T19:41:44.225Z,72.79
2022-09-24T19:44:12.321Z,72.97
2022-09-24T19:46:40.368Z,73.31
2022-09-24T19:49:07.779Z,73.70
2022-09-24T19:51:36.892Z,74.08
2022-09-24T19:54:07.802Z,74.28
2022-09-24T19:56:36.993Z,74.62
2022-09-24T19:59:05.939Z,74.69
2022-09-24T20:01:34.270Z,75.32
2022-09-24T20:04:06.479Z,75.78
2022-09-24T20:06:36.767Z,75.87
2022-09-24T20:09:04.942Z,75.42
2022-09-24T20:11:32.996Z,76.22
2022-09-24T20:14:01.409Z,76.42
2022-09-24T20:16:33.218Z,76.62
2022-09-24T20:19:02.426Z,77.08
2022-09-24T20:21:35.022Z,76.95
2022-09-24T20:24:04.475Z,77.43
2022-09-24T20:26:50.864Z,77.50
2022-09-24T20:29:19.957Z,77.08
2022-09-24T20:31:52.411Z,77.92
2022-09-24T20:34:33.387Z,77.42
2022-09-24T20:37:05.759Z,78.49
2022-09-24T20:39:33.904Z,78.26
2022-09-24T20:42:03.924Z,78.89
2022-09-24T20:44:33.719Z,78.28
2022-09-24T20:47:01.105Z,78.08
2022-09-24T20:49:30.051Z,78.65
2022-09-24T20:51:58.080Z,78.41
2022-09-24T20:54:28.234Z,78.65
2022-09-24T20:56:56.571Z,78.75
2022-09-24T20:59:26.760Z,78.81
2022-09-24T21:01:54.819Z,78.54
2022-09-24T21:04:23.593Z,78.61
2022-09-24T21:06:50.983Z,78.59
2022-09-24T21:09:18.560Z,78.64
2022-09-24T21:11:45.788Z,78.42
2022-09-24T21:14:14.770Z,78.53
2022-09-24T21:16:42.283Z,78.99
2022-09-24T21:19:10.765Z,78.40
2022-09-24T21:21:39.155Z,78.93
2022-09-24T21:24:12.240Z,78.74
2022-09-24T21:26:40.560Z,78.63
2022-09-24T21:29:18.138Z,78.95
2022-09-24T21:31:47.563Z,79.08
2022-09-24T21:34:20.979Z,79.56
2022-09-24T21:36:48.944Z,79.92
2022-09-24T21:39:23.088Z,79.85
2022-09-24T21:41:55.078Z,80.16
2022-09-24T21:44:22.950Z,79.57
2022-09-24T21:46:52.559Z,79.64
2022-09-24T21:49:20.580Z,80.14
2022-09-24T21:51:48.979Z,79.96
2022-09-24T21:54:18.627Z,80.11
2022-09-24T21:56:47.052Z,80.34
2022-09-24T21:59:34.703Z,81.00
2022-09-24T22:02:03.581Z,81.12
2022-09-24T22:04:33.226Z,81.18
2022-09-24T22:07:00.664Z,80.88
2022-09-24T22:09:28.693Z,81.15
2022-09-24T22:11:57.835Z,82.37
2022-09-24T22:14:26.362Z,82.69
2022-09-24T22:16:54.243Z,83.19
2022-09-24T22:19:22.441Z,83.96
2022-09-24T22:21:49.685Z,84.19
2022-09-24T22:24:16.990Z,83.87
2022-09-24T22:26:45.390Z,83.82
2022-09-24T22:29:13.500Z,83.91
2022-09-24T22:31:40.809Z,83.22
2022-09-24T22:34:26.851Z,83.38
2022-09-24T22:36:54.142Z,83.46
2022-09-24T22:39:21.564Z,83.58
2022-09-24T22:41:48.811Z,83.93
2022-09-24T22:44:16.117Z,84.59
2022-09-24T22:46:43.545Z,84.04
2022-09-24T22:49:11.096Z,83.76
2022-09-24T22:51:39.488Z,84.13
2022-09-24T22:54:09.717Z,84.17
2022-09-24T22:56:38.375Z,83.48
2022-09-24T22:59:06.485Z,84.22
2022-09-24T23:01:42.080Z,83.45
2022-09-24T23:04:14.989Z,83.42
2022-09-24T23:06:43.790Z,83.09
2022-09-24T23:09:11.679Z,84.16
2022-09-24T23:11:39.932Z,84.13
2022-09-24T23:14:14.432Z,83.26
2022-09-24T23:16:42.938Z,83.74
2022-09-24T23:19:19.885Z,83.44
2022-09-24T23:21:47.763Z,84.44
2022-09-24T23:24:21.905Z,84.03
2022-09-24T23:26:51.135Z,84.83
2022-09-24T23:29:18.572Z,84.76
2022-09-24T23:31:45.778Z,84.98
2022-09-24T23:34:14.364Z,85.07
2022-09-24T23:36:45.216Z,85.07
2022-09-24T23:39:12.829Z,85.41
2022-09-24T23:41:40.643Z,85.00
2022-09-24T23:44:08.113Z,84.51
2022-09-24T23:46:35.392Z,84.56
2022-09-24T23:49:02.666Z,84.94
2022-09-24T23:51:30.158Z,84.90
2022-09-24T23:53:57.596Z,84.72
2022-09-24T23:56:24.893Z,84.86
2022-09-24T23:58:52.481Z,84.86
